ULLIULOO

Guest
Details From ULLI - Saint Petersburg Pulkovo
To ULOO - Pskov
Flight Number -
Tags Generated
Created
Modified
Stats Distance 135 nm / 250 km
Max Altitude 0 ft / 0 m
Waypoints 2
Social Downloads 3
Likes 0
Share VATSIM

Download

Looking for another format? Having issues loading an existing format? Contact us
Advertisement - Login to hide

Notes

Generated

Route

ULLI ULOO

ID Type Via Altitude Latitude Longitude Leg Dist Tot Dist Heading (true) Name
O ULLI APT - 0 ft / 0 m 59.80973˚ 30.24537˚ - 0 nm - -
O ULOO APT - 0 ft / 0 m 57.77647˚ 28.39274˚ 135 nm 135 nm 206° / 204° -

Altitude Profile

Advertisement - Login to hide

ULLI

Details ICAO ULLI (LED)
Name Saint Petersburg Pulkovo
Region Russia
Timezone Europe/Moscow (UTC+3.0)
Stats Elevation 78 ft / 24 m (AMSL)
Location 59.800292° 30.262504°
Runways 2
Magnetic Variation 10.696° E

METAR

ULLI 151930Z 17004MPS 140V210 9999 BKN021 02/00 Q1000 R28L/290050 NOSIG

Decode

TAF

TAF ULLI 151701Z 1518/1618 18005G10MPS 6000 BKN011 BKN018 TEMPO 1518/1524 3100 -SHSNRA BR BKN008 BKN016CB TEMPO 1600/1606 16003MPS 2100 -SHSN BR BKN008 BKN017CB BECMG 1606/1608 10003G08MPS TEMPO 1606/1612 VRB01MPS 2100 -SHSN BR BKN004 BKN016CB

Decode

Departure Runways

ID Width Length Bearing (true) Bearing (mag) Surface Threshold Offset Overrun Length
10L 197 ft / 60 m 11,115 ft / 3,388 m 106.38° 95.68° Concrete 0 ft / 0 m 235 ft / 72 m
10R 197 ft / 60 m 12,365 ft / 3,769 m 106.40° 95.70° Concrete 0 ft / 0 m 220 ft / 67 m
28L 197 ft / 60 m 12,365 ft / 3,769 m 286.46° 275.76° Concrete 0 ft / 0 m 260 ft / 79 m
28R 197 ft / 60 m 11,115 ft / 3,388 m 286.44° 275.74° Concrete 0 ft / 0 m 240 ft / 73 m

ULOO

Details ICAO ULOO (PKV)
Name PSKOV
Region Russia
Timezone Europe/Moscow (UTC+3.0)
Stats Elevation 154 ft / 47 m (AMSL)
Location 57.783872° 28.396468°
Runways 2
Magnetic Variation 9.332° E

METAR

ULOO 151900Z AUTO 16004MPS 130V190 8000 // ///034/// 02/M00 Q1002 RMK QFE747

Decode

TAF

Not found

Destination Runways

ID Width Length Bearing (true) Bearing (mag) Surface Threshold Offset Overrun Length
01 144 ft / 44 m 6,551 ft / 1,997 m 17.98° 8.65° Concrete 0 ft / 0 m 885 ft / 270 m
01R 144 ft / 44 m 5,656 ft / 1,724 m 18.38° 9.05° Dirt 0 ft / 0 m 0 ft / 0 m
19 144 ft / 44 m 6,551 ft / 1,997 m 197.99° 188.66° Concrete 0 ft / 0 m 150 ft / 46 m
19L 144 ft / 44 m 5,656 ft / 1,724 m 198.38° 189.05° Dirt 0 ft / 0 m 0 ft / 0 m

Popular Alternatives